sensor_id;sensor_type;location;lat;lon;timestamp;P1;durP1;ratioP1;P2;durP2;ratioP2
15408;SDS011;7803;48.130;13.788;2022-10-30T00:02:46;12.38;;;11.10;;
15408;SDS011;7803;48.130;13.788;2022-10-30T00:05:49;12.38;;;11.13;;
15408;SDS011;7803;48.130;13.788;2022-10-30T00:08:51;12.88;;;11.35;;
15408;SDS011;7803;48.130;13.788;2022-10-30T00:11:55;12.45;;;11.23;;
15408;SDS011;7803;48.130;13.788;2022-10-30T00:14:57;12.45;;;11.25;;
15408;SDS011;7803;48.130;13.788;2022-10-30T00:17:59;12.25;;;11.05;;
15408;SDS011;7803;48.130;13.788;2022-10-30T00:21:05;13.13;;;11.77;;
15408;SDS011;7803;48.130;13.788;2022-10-30T00:24:08;13.25;;;11.90;;
15408;SDS011;7803;48.130;13.788;2022-10-30T00:27:12;12.80;;;11.60;;
15408;SDS011;7803;48.130;13.788;2022-10-30T00:30:14;12.80;;;11.50;;
15408;SDS011;7803;48.130;13.788;2022-10-30T00:33:18;13.25;;;11.90;;
15408;SDS011;7803;48.130;13.788;2022-10-30T00:36:20;13.68;;;12.27;;
15408;SDS011;7803;48.130;13.788;2022-10-30T00:39:23;13.10;;;11.80;;
15408;SDS011;7803;48.130;13.788;2022-10-30T00:42:28;12.68;;;11.48;;
15408;SDS011;7803;48.130;13.788;2022-10-30T00:45:31;13.80;;;12.45;;
15408;SDS011;7803;48.130;13.788;2022-10-30T00:48:33;13.55;;;12.15;;
15408;SDS011;7803;48.130;13.788;2022-10-30T00:51:36;13.23;;;11.93;;
15408;SDS011;7803;48.130;13.788;2022-10-30T00:54:39;13.35;;;11.98;;
15408;SDS011;7803;48.130;13.788;2022-10-30T00:57:43;13.02;;;11.80;;
15408;SDS011;7803;48.130;13.788;2022-10-30T01:00:46;13.13;;;11.80;;
15408;SDS011;7803;48.130;13.788;2022-10-30T01:03:51;13.48;;;12.15;;
15408;SDS011;7803;48.130;13.788;2022-10-30T01:06:56;13.32;;;12.02;;
15408;SDS011;7803;48.130;13.788;2022-10-30T01:10:00;13.60;;;12.20;;
15408;SDS011;7803;48.130;13.788;2022-10-30T01:13:03;13.98;;;12.57;;
15408;SDS011;7803;48.130;13.788;2022-10-30T01:16:13;13.27;;;11.98;;
15408;SDS011;7803;48.130;13.788;2022-10-30T01:19:41;14.45;;;11.93;;
15408;SDS011;7803;48.130;13.788;2022-10-30T01:22:51;13.88;;;12.43;;
15408;SDS011;7803;48.130;13.788;2022-10-30T01:26:02;14.40;;;12.80;;
15408;SDS011;7803;48.130;13.788;2022-10-30T01:29:19;13.48;;;12.07;;
15408;SDS011;7803;48.130;13.788;2022-10-30T01:32:35;13.50;;;12.20;;
15408;SDS011;7803;48.130;13.788;2022-10-30T01:35:46;13.60;;;12.20;;
15408;SDS011;7803;48.130;13.788;2022-10-30T01:38:53;12.82;;;11.60;;
15408;SDS011;7803;48.130;13.788;2022-10-30T01:41:58;13.75;;;12.30;;
15408;SDS011;7803;48.130;13.788;2022-10-30T01:45:01;12.95;;;11.65;;
15408;SDS011;7803;48.130;13.788;2022-10-30T01:48:12;12.60;;;11.30;;
15408;SDS011;7803;48.130;13.788;2022-10-30T01:51:36;14.00;;;12.32;;
15408;SDS011;7803;48.130;13.788;2022-10-30T01:54:51;14.00;;;12.40;;
15408;SDS011;7803;48.130;13.788;2022-10-30T01:58:00;12.85;;;11.55;;
15408;SDS011;7803;48.130;13.788;2022-10-30T02:01:08;13.30;;;12.00;;
15408;SDS011;7803;48.130;13.788;2022-10-30T02:04:12;12.98;;;11.68;;
15408;SDS011;7803;48.130;13.788;2022-10-30T02:07:14;13.20;;;11.90;;
15408;SDS011;7803;48.130;13.788;2022-10-30T02:10:16;13.52;;;12.23;;
15408;SDS011;7803;48.130;13.788;2022-10-30T02:13:19;13.15;;;11.85;;
15408;SDS011;7803;48.130;13.788;2022-10-30T02:16:22;12.65;;;11.45;;
15408;SDS011;7803;48.130;13.788;2022-10-30T02:19:24;13.05;;;11.65;;
15408;SDS011;7803;48.130;13.788;2022-10-30T02:22:28;12.77;;;11.48;;
15408;SDS011;7803;48.130;13.788;2022-10-30T02:25:30;12.73;;;11.52;;
15408;SDS011;7803;48.130;13.788;2022-10-30T02:28:32;13.00;;;11.70;;
15408;SDS011;7803;48.130;13.788;2022-10-30T02:31:34;12.80;;;11.35;;
15408;SDS011;7803;48.130;13.788;2022-10-30T02:34:37;12.90;;;11.60;;
15408;SDS011;7803;48.130;13.788;2022-10-30T02:37:40;12.13;;;10.93;;
15408;SDS011;7803;48.130;13.788;2022-10-30T02:40:43;13.27;;;11.93;;
15408;SDS011;7803;48.130;13.788;2022-10-30T02:43:45;12.55;;;11.25;;
15408;SDS011;7803;48.130;13.788;2022-10-30T02:46:47;12.43;;;11.23;;
15408;SDS011;7803;48.130;13.788;2022-10-30T02:49:49;12.07;;;10.80;;
15408;SDS011;7803;48.130;13.788;2022-10-30T02:52:52;12.10;;;10.90;;
15408;SDS011;7803;48.130;13.788;2022-10-30T02:55:54;12.00;;;10.80;;
15408;SDS011;7803;48.130;13.788;2022-10-30T02:58:57;12.20;;;10.90;;
15408;SDS011;7803;48.130;13.788;2022-10-30T03:01:59;11.85;;;10.65;;
15408;SDS011;7803;48.130;13.788;2022-10-30T03:05:01;11.65;;;10.55;;
15408;SDS011;7803;48.130;13.788;2022-10-30T03:08:04;11.77;;;10.57;;
15408;SDS011;7803;48.130;13.788;2022-10-30T03:11:07;12.00;;;10.80;;
15408;SDS011;7803;48.130;13.788;2022-10-30T03:14:10;11.38;;;10.20;;
15408;SDS011;7803;48.130;13.788;2022-10-30T03:17:12;11.45;;;10.27;;
15408;SDS011;7803;48.130;13.788;2022-10-30T03:20:14;11.57;;;10.48;;
15408;SDS011;7803;48.130;13.788;2022-10-30T03:23:17;11.00;;;9.90;;
15408;SDS011;7803;48.130;13.788;2022-10-30T03:26:19;11.20;;;10.13;;
15408;SDS011;7803;48.130;13.788;2022-10-30T03:29:22;11.55;;;10.35;;
15408;SDS011;7803;48.130;13.788;2022-10-30T03:32:24;11.05;;;9.93;;
15408;SDS011;7803;48.130;13.788;2022-10-30T03:35:26;10.90;;;9.82;;
15408;SDS011;7803;48.130;13.788;2022-10-30T03:38:29;11.10;;;10.00;;
15408;SDS011;7803;48.130;13.788;2022-10-30T03:41:31;11.05;;;9.95;;
15408;SDS011;7803;48.130;13.788;2022-10-30T03:44:33;10.63;;;9.60;;
15408;SDS011;7803;48.130;13.788;2022-10-30T03:47:38;10.35;;;9.30;;
15408;SDS011;7803;48.130;13.788;2022-10-30T03:50:40;10.73;;;9.73;;
15408;SDS011;7803;48.130;13.788;2022-10-30T03:53:44;10.65;;;9.55;;
15408;SDS011;7803;48.130;13.788;2022-10-30T03:56:46;10.77;;;9.77;;
15408;SDS011;7803;48.130;13.788;2022-10-30T03:59:48;10.23;;;9.30;;
15408;SDS011;7803;48.130;13.788;2022-10-30T04:02:50;10.85;;;9.80;;
15408;SDS011;7803;48.130;13.788;2022-10-30T04:05:53;11.27;;;10.18;;
15408;SDS011;7803;48.130;13.788;2022-10-30T04:08:56;10.70;;;9.60;;
15408;SDS011;7803;48.130;13.788;2022-10-30T04:11:58;10.40;;;9.40;;
15408;SDS011;7803;48.130;13.788;2022-10-30T04:15:00;10.02;;;9.13;;
15408;SDS011;7803;48.130;13.788;2022-10-30T04:18:02;9.88;;;8.88;;
15408;SDS011;7803;48.130;13.788;2022-10-30T04:21:04;10.00;;;9.00;;
15408;SDS011;7803;48.130;13.788;2022-10-30T04:24:08;9.95;;;8.95;;
15408;SDS011;7803;48.130;13.788;2022-10-30T04:27:10;9.77;;;8.77;;
15408;SDS011;7803;48.130;13.788;2022-10-30T04:30:13;9.60;;;8.70;;
15408;SDS011;7803;48.130;13.788;2022-10-30T04:33:19;9.50;;;8.60;;
15408;SDS011;7803;48.130;13.788;2022-10-30T04:36:21;10.20;;;9.20;;
15408;SDS011;7803;48.130;13.788;2022-10-30T04:39:30;9.50;;;8.55;;
15408;SDS011;7803;48.130;13.788;2022-10-30T04:42:32;9.50;;;8.60;;
15408;SDS011;7803;48.130;13.788;2022-10-30T04:45:35;9.00;;;8.10;;
15408;SDS011;7803;48.130;13.788;2022-10-30T04:48:38;9.60;;;8.60;;
15408;SDS011;7803;48.130;13.788;2022-10-30T04:51:40;8.98;;;8.07;;
15408;SDS011;7803;48.130;13.788;2022-10-30T04:54:43;9.20;;;8.30;;
15408;SDS011;7803;48.130;13.788;2022-10-30T04:57:45;8.90;;;8.10;;
15408;SDS011;7803;48.130;13.788;2022-10-30T05:00:47;9.77;;;8.75;;
15408;SDS011;7803;48.130;13.788;2022-10-30T05:03:49;8.77;;;7.97;;
15408;SDS011;7803;48.130;13.788;2022-10-30T05:06:51;8.48;;;7.68;;
15408;SDS011;7803;48.130;13.788;2022-10-30T05:09:55;8.88;;;7.97;;
15408;SDS011;7803;48.130;13.788;2022-10-30T05:12:57;8.43;;;7.63;;
15408;SDS011;7803;48.130;13.788;2022-10-30T05:15:59;8.35;;;7.55;;
15408;SDS011;7803;48.130;13.788;2022-10-30T05:19:01;7.80;;;7.10;;
15408;SDS011;7803;48.130;13.788;2022-10-30T05:22:03;8.40;;;7.60;;
15408;SDS011;7803;48.130;13.788;2022-10-30T05:25:06;8.27;;;7.50;;
15408;SDS011;7803;48.130;13.788;2022-10-30T05:28:09;8.15;;;7.35;;
15408;SDS011;7803;48.130;13.788;2022-10-30T05:31:11;8.45;;;7.55;;
15408;SDS011;7803;48.130;13.788;2022-10-30T05:34:13;8.85;;;7.95;;
15408;SDS011;7803;48.130;13.788;2022-10-30T05:37:15;7.97;;;7.28;;
15408;SDS011;7803;48.130;13.788;2022-10-30T05:40:18;8.07;;;7.28;;
15408;SDS011;7803;48.130;13.788;2022-10-30T05:43:20;8.00;;;7.10;;
15408;SDS011;7803;48.130;13.788;2022-10-30T05:46:23;7.82;;;7.07;;
15408;SDS011;7803;48.130;13.788;2022-10-30T05:49:25;7.78;;;7.07;;
15408;SDS011;7803;48.130;13.788;2022-10-30T05:52:27;8.40;;;7.60;;
15408;SDS011;7803;48.130;13.788;2022-10-30T05:55:30;8.13;;;7.32;;
15408;SDS011;7803;48.130;13.788;2022-10-30T05:58:33;7.75;;;6.97;;
15408;SDS011;7803;48.130;13.788;2022-10-30T06:01:35;7.65;;;6.95;;
15408;SDS011;7803;48.130;13.788;2022-10-30T06:04:36;7.80;;;7.00;;
15408;SDS011;7803;48.130;13.788;2022-10-30T06:07:38;8.05;;;7.25;;
15408;SDS011;7803;48.130;13.788;2022-10-30T06:10:42;7.68;;;6.97;;
15408;SDS011;7803;48.130;13.788;2022-10-30T06:13:44;7.40;;;6.70;;
15408;SDS011;7803;48.130;13.788;2022-10-30T06:16:48;7.05;;;6.35;;
15408;SDS011;7803;48.130;13.788;2022-10-30T06:19:50;7.25;;;6.60;;
15408;SDS011;7803;48.130;13.788;2022-10-30T06:22:53;6.95;;;6.32;;
15408;SDS011;7803;48.130;13.788;2022-10-30T06:25:56;7.22;;;6.53;;
15408;SDS011;7803;48.130;13.788;2022-10-30T06:28:58;6.93;;;6.32;;
15408;SDS011;7803;48.130;13.788;2022-10-30T06:32:00;7.88;;;6.75;;
15408;SDS011;7803;48.130;13.788;2022-10-30T06:35:02;6.45;;;5.85;;
15408;SDS011;7803;48.130;13.788;2022-10-30T06:38:05;7.10;;;6.47;;
15408;SDS011;7803;48.130;13.788;2022-10-30T06:41:09;6.28;;;5.68;;
15408;SDS011;7803;48.130;13.788;2022-10-30T06:44:11;7.68;;;6.70;;
15408;SDS011;7803;48.130;13.788;2022-10-30T06:47:13;7.72;;;6.82;;
15408;SDS011;7803;48.130;13.788;2022-10-30T06:50:16;7.97;;;7.20;;
15408;SDS011;7803;48.130;13.788;2022-10-30T06:53:19;8.68;;;7.75;;
15408;SDS011;7803;48.130;13.788;2022-10-30T06:56:23;8.35;;;7.55;;
15408;SDS011;7803;48.130;13.788;2022-10-30T06:59:25;7.95;;;7.22;;
15408;SDS011;7803;48.130;13.788;2022-10-30T07:02:27;8.23;;;7.43;;
15408;SDS011;7803;48.130;13.788;2022-10-30T07:05:29;8.25;;;7.07;;
15408;SDS011;7803;48.130;13.788;2022-10-30T07:08:31;8.93;;;8.02;;
15408;SDS011;7803;48.130;13.788;2022-10-30T07:11:34;8.00;;;7.20;;
15408;SDS011;7803;48.130;13.788;2022-10-30T07:14:36;7.70;;;6.90;;
15408;SDS011;7803;48.130;13.788;2022-10-30T07:17:38;7.82;;;7.03;;
15408;SDS011;7803;48.130;13.788;2022-10-30T07:20:40;8.00;;;7.20;;
15408;SDS011;7803;48.130;13.788;2022-10-30T07:23:42;8.13;;;7.35;;
15408;SDS011;7803;48.130;13.788;2022-10-30T07:26:45;8.27;;;6.93;;
15408;SDS011;7803;48.130;13.788;2022-10-30T07:29:47;7.40;;;6.70;;
15408;SDS011;7803;48.130;13.788;2022-10-30T07:32:56;7.63;;;6.90;;
15408;SDS011;7803;48.130;13.788;2022-10-30T07:35:59;7.40;;;6.70;;
15408;SDS011;7803;48.130;13.788;2022-10-30T07:39:01;7.50;;;6.80;;
15408;SDS011;7803;48.130;13.788;2022-10-30T07:42:05;8.13;;;7.18;;
15408;SDS011;7803;48.130;13.788;2022-10-30T07:45:07;8.32;;;6.82;;
15408;SDS011;7803;48.130;13.788;2022-10-30T07:48:09;9.18;;;7.05;;
15408;SDS011;7803;48.130;13.788;2022-10-30T07:51:11;7.93;;;6.93;;
15408;SDS011;7803;48.130;13.788;2022-10-30T07:54:14;7.68;;;6.57;;
15408;SDS011;7803;48.130;13.788;2022-10-30T07:57:17;11.13;;;7.10;;
15408;SDS011;7803;48.130;13.788;2022-10-30T08:00:19;8.30;;;7.10;;
15408;SDS011;7803;48.130;13.788;2022-10-30T08:03:21;8.75;;;7.30;;
15408;SDS011;7803;48.130;13.788;2022-10-30T08:06:23;9.57;;;7.00;;
15408;SDS011;7803;48.130;13.788;2022-10-30T08:09:25;10.18;;;7.10;;
15408;SDS011;7803;48.130;13.788;2022-10-30T08:12:31;9.63;;;7.32;;
15408;SDS011;7803;48.130;13.788;2022-10-30T08:15:33;16.50;;;8.27;;
15408;SDS011;7803;48.130;13.788;2022-10-30T08:18:35;14.18;;;7.95;;
15408;SDS011;7803;48.130;13.788;2022-10-30T08:21:40;15.30;;;8.45;;
15408;SDS011;7803;48.130;13.788;2022-10-30T08:24:42;13.05;;;8.20;;
15408;SDS011;7803;48.130;13.788;2022-10-30T08:27:50;14.85;;;7.85;;
15408;SDS011;7803;48.130;13.788;2022-10-30T08:30:54;13.02;;;8.20;;
15408;SDS011;7803;48.130;13.788;2022-10-30T08:33:56;12.02;;;7.55;;
15408;SDS011;7803;48.130;13.788;2022-10-30T08:36:57;12.43;;;8.48;;
15408;SDS011;7803;48.130;13.788;2022-10-30T08:40:00;11.38;;;7.72;;
15408;SDS011;7803;48.130;13.788;2022-10-30T08:43:03;12.32;;;7.97;;
15408;SDS011;7803;48.130;13.788;2022-10-30T08:46:05;12.93;;;7.57;;
15408;SDS011;7803;48.130;13.788;2022-10-30T08:49:07;13.25;;;8.07;;
15408;SDS011;7803;48.130;13.788;2022-10-30T08:52:09;11.68;;;7.93;;
15408;SDS011;7803;48.130;13.788;2022-10-30T08:55:11;12.30;;;7.90;;
15408;SDS011;7803;48.130;13.788;2022-10-30T08:58:15;13.10;;;8.20;;
15408;SDS011;7803;48.130;13.788;2022-10-30T09:01:17;10.95;;;7.80;;
15408;SDS011;7803;48.130;13.788;2022-10-30T09:04:19;13.18;;;7.68;;
15408;SDS011;7803;48.130;13.788;2022-10-30T09:07:21;11.68;;;6.93;;
15408;SDS011;7803;48.130;13.788;2022-10-30T09:10:23;10.82;;;7.50;;
15408;SDS011;7803;48.130;13.788;2022-10-30T09:13:26;9.70;;;7.15;;
15408;SDS011;7803;48.130;13.788;2022-10-30T09:16:29;10.57;;;7.20;;
15408;SDS011;7803;48.130;13.788;2022-10-30T09:19:30;10.85;;;6.93;;
15408;SDS011;7803;48.130;13.788;2022-10-30T09:22:33;9.55;;;6.85;;
15408;SDS011;7803;48.130;13.788;2022-10-30T09:25:35;9.88;;;7.18;;
15408;SDS011;7803;48.130;13.788;2022-10-30T09:28:38;9.57;;;6.78;;
15408;SDS011;7803;48.130;13.788;2022-10-30T09:31:40;10.00;;;7.53;;
15408;SDS011;7803;48.130;13.788;2022-10-30T09:34:42;8.45;;;6.53;;
15408;SDS011;7803;48.130;13.788;2022-10-30T09:37:44;8.65;;;6.60;;
15408;SDS011;7803;48.130;13.788;2022-10-30T09:40:51;8.90;;;6.50;;
15408;SDS011;7803;48.130;13.788;2022-10-30T09:44:09;8.10;;;6.45;;
15408;SDS011;7803;48.130;13.788;2022-10-30T09:47:24;8.73;;;6.68;;
15408;SDS011;7803;48.130;13.788;2022-10-30T09:50:38;7.03;;;6.22;;
15408;SDS011;7803;48.130;13.788;2022-10-30T09:53:48;7.60;;;5.90;;
15408;SDS011;7803;48.130;13.788;2022-10-30T09:57:00;8.25;;;6.78;;
15408;SDS011;7803;48.130;13.788;2022-10-30T10:00:08;10.07;;;6.30;;
15408;SDS011;7803;48.130;13.788;2022-10-30T10:03:16;8.27;;;6.05;;
15408;SDS011;7803;48.130;13.788;2022-10-30T10:06:28;9.90;;;6.70;;
15408;SDS011;7803;48.130;13.788;2022-10-30T10:09:33;8.05;;;6.25;;
15408;SDS011;7803;48.130;13.788;2022-10-30T10:12:37;8.05;;;6.10;;
15408;SDS011;7803;48.130;13.788;2022-10-30T10:15:45;7.45;;;6.13;;
15408;SDS011;7803;48.130;13.788;2022-10-30T10:18:50;7.95;;;6.00;;
15408;SDS011;7803;48.130;13.788;2022-10-30T10:21:59;8.52;;;6.20;;
15408;SDS011;7803;48.130;13.788;2022-10-30T10:25:02;7.97;;;6.00;;
15408;SDS011;7803;48.130;13.788;2022-10-30T10:28:13;8.52;;;6.22;;
15408;SDS011;7803;48.130;13.788;2022-10-30T10:31:27;8.23;;;6.25;;
15408;SDS011;7803;48.130;13.788;2022-10-30T10:34:40;7.88;;;5.30;;
15408;SDS011;7803;48.130;13.788;2022-10-30T10:37:57;8.25;;;6.10;;
15408;SDS011;7803;48.130;13.788;2022-10-30T10:41:08;7.18;;;5.88;;
15408;SDS011;7803;48.130;13.788;2022-10-30T10:44:23;7.88;;;5.95;;
15408;SDS011;7803;48.130;13.788;2022-10-30T10:47:38;7.20;;;5.95;;
15408;SDS011;7803;48.130;13.788;2022-10-30T10:50:57;6.95;;;5.47;;
15408;SDS011;7803;48.130;13.788;2022-10-30T10:54:05;6.72;;;5.63;;
15408;SDS011;7803;48.130;13.788;2022-10-30T10:57:12;8.45;;;6.07;;
15408;SDS011;7803;48.130;13.788;2022-10-30T11:00:26;7.13;;;5.75;;
15408;SDS011;7803;48.130;13.788;2022-10-30T11:03:34;6.68;;;5.55;;
15408;SDS011;7803;48.130;13.788;2022-10-30T11:06:45;7.57;;;5.90;;
15408;SDS011;7803;48.130;13.788;2022-10-30T11:09:50;8.70;;;6.15;;
15408;SDS011;7803;48.130;13.788;2022-10-30T11:12:54;7.05;;;5.97;;
15408;SDS011;7803;48.130;13.788;2022-10-30T11:15:57;8.00;;;5.93;;
15408;SDS011;7803;48.130;13.788;2022-10-30T11:19:07;6.93;;;6.03;;
15408;SDS011;7803;48.130;13.788;2022-10-30T11:22:11;6.47;;;5.72;;
15408;SDS011;7803;48.130;13.788;2022-10-30T11:25:22;7.13;;;5.53;;
15408;SDS011;7803;48.130;13.788;2022-10-30T11:28:32;7.20;;;6.03;;
15408;SDS011;7803;48.130;13.788;2022-10-30T11:31:37;7.50;;;5.70;;
15408;SDS011;7803;48.130;13.788;2022-10-30T11:34:41;7.20;;;5.90;;
15408;SDS011;7803;48.130;13.788;2022-10-30T11:37:44;7.90;;;5.78;;
15408;SDS011;7803;48.130;13.788;2022-10-30T11:40:47;7.18;;;5.80;;
15408;SDS011;7803;48.130;13.788;2022-10-30T11:43:52;9.68;;;6.32;;
15408;SDS011;7803;48.130;13.788;2022-10-30T11:46:55;7.18;;;5.90;;
15408;SDS011;7803;48.130;13.788;2022-10-30T11:49:59;6.93;;;5.57;;
15408;SDS011;7803;48.130;13.788;2022-10-30T11:53:09;7.95;;;5.82;;
15408;SDS011;7803;48.130;13.788;2022-10-30T11:56:14;8.05;;;5.85;;
15408;SDS011;7803;48.130;13.788;2022-10-30T11:59:20;6.22;;;5.20;;
15408;SDS011;7803;48.130;13.788;2022-10-30T12:02:24;6.82;;;5.72;;
15408;SDS011;7803;48.130;13.788;2022-10-30T12:05:29;8.10;;;6.03;;
15408;SDS011;7803;48.130;13.788;2022-10-30T12:08:34;7.35;;;5.85;;
15408;SDS011;7803;48.130;13.788;2022-10-30T12:11:37;6.72;;;5.60;;
15408;SDS011;7803;48.130;13.788;2022-10-30T12:14:42;7.93;;;5.70;;
15408;SDS011;7803;48.130;13.788;2022-10-30T12:17:49;7.38;;;5.85;;
15408;SDS011;7803;48.130;13.788;2022-10-30T12:20:54;7.22;;;5.57;;
15408;SDS011;7803;48.130;13.788;2022-10-30T12:23:58;6.45;;;5.05;;
15408;SDS011;7803;48.130;13.788;2022-10-30T12:27:10;7.43;;;5.45;;
15408;SDS011;7803;48.130;13.788;2022-10-30T12:30:15;7.45;;;5.57;;
15408;SDS011;7803;48.130;13.788;2022-10-30T12:33:19;6.78;;;5.47;;
15408;SDS011;7803;48.130;13.788;2022-10-30T12:36:28;6.88;;;5.72;;
15408;SDS011;7803;48.130;13.788;2022-10-30T12:39:40;6.97;;;5.68;;
15408;SDS011;7803;48.130;13.788;2022-10-30T12:42:54;7.47;;;5.47;;
15408;SDS011;7803;48.130;13.788;2022-10-30T12:46:05;6.60;;;5.28;;
15408;SDS011;7803;48.130;13.788;2022-10-30T12:49:16;7.50;;;5.30;;
15408;SDS011;7803;48.130;13.788;2022-10-30T12:52:27;7.18;;;5.68;;
15408;SDS011;7803;48.130;13.788;2022-10-30T12:55:34;7.22;;;5.78;;
15408;SDS011;7803;48.130;13.788;2022-10-30T12:58:40;6.80;;;5.43;;
15408;SDS011;7803;48.130;13.788;2022-10-30T13:01:47;6.88;;;5.38;;
15408;SDS011;7803;48.130;13.788;2022-10-30T13:04:57;6.72;;;5.47;;
15408;SDS011;7803;48.130;13.788;2022-10-30T13:08:13;6.18;;;5.30;;
15408;SDS011;7803;48.130;13.788;2022-10-30T13:11:24;6.47;;;5.35;;
15408;SDS011;7803;48.130;13.788;2022-10-30T13:14:34;5.43;;;4.68;;
15408;SDS011;7803;48.130;13.788;2022-10-30T13:17:41;6.35;;;5.22;;
15408;SDS011;7803;48.130;13.788;2022-10-30T13:20:47;6.30;;;5.22;;
15408;SDS011;7803;48.130;13.788;2022-10-30T13:24:04;7.03;;;5.28;;
15408;SDS011;7803;48.130;13.788;2022-10-30T13:27:12;7.50;;;5.57;;
15408;SDS011;7803;48.130;13.788;2022-10-30T13:30:17;7.13;;;5.10;;
15408;SDS011;7803;48.130;13.788;2022-10-30T13:33:22;6.45;;;5.05;;
15408;SDS011;7803;48.130;13.788;2022-10-30T13:36:31;5.65;;;4.95;;
15408;SDS011;7803;48.130;13.788;2022-10-30T13:39:44;6.30;;;5.28;;
15408;SDS011;7803;48.130;13.788;2022-10-30T13:42:55;5.70;;;4.85;;
15408;SDS011;7803;48.130;13.788;2022-10-30T13:46:05;6.40;;;5.28;;
15408;SDS011;7803;48.130;13.788;2022-10-30T13:49:22;5.95;;;5.15;;
15408;SDS011;7803;48.130;13.788;2022-10-30T13:52:47;5.85;;;5.25;;
15408;SDS011;7803;48.130;13.788;2022-10-30T13:55:54;6.47;;;4.80;;
15408;SDS011;7803;48.130;13.788;2022-10-30T13:59:01;7.13;;;5.20;;
15408;SDS011;7803;48.130;13.788;2022-10-30T14:02:12;7.60;;;5.38;;
15408;SDS011;7803;48.130;13.788;2022-10-30T14:05:25;7.40;;;5.47;;
15408;SDS011;7803;48.130;13.788;2022-10-30T14:08:32;6.65;;;5.05;;
15408;SDS011;7803;48.130;13.788;2022-10-30T14:11:41;6.93;;;5.30;;
15408;SDS011;7803;48.130;13.788;2022-10-30T14:14:44;5.70;;;4.93;;
15408;SDS011;7803;48.130;13.788;2022-10-30T14:21:38;6.53;;;5.10;;
15408;SDS011;7803;48.130;13.788;2022-10-30T14:24:50;6.30;;;4.82;;
15408;SDS011;7803;48.130;13.788;2022-10-30T14:27:55;6.65;;;5.10;;
15408;SDS011;7803;48.130;13.788;2022-10-30T14:31:00;6.18;;;5.15;;
15408;SDS011;7803;48.130;13.788;2022-10-30T14:34:02;5.57;;;5.00;;
15408;SDS011;7803;48.130;13.788;2022-10-30T14:37:04;6.13;;;4.95;;
15408;SDS011;7803;48.130;13.788;2022-10-30T14:43:40;5.88;;;4.68;;
15408;SDS011;7803;48.130;13.788;2022-10-30T14:46:52;6.13;;;4.88;;
15408;SDS011;7803;48.130;13.788;2022-10-30T14:50:15;5.85;;;4.65;;
15408;SDS011;7803;48.130;13.788;2022-10-30T14:53:24;5.40;;;4.90;;
15408;SDS011;7803;48.130;13.788;2022-10-30T14:56:34;6.72;;;5.03;;
15408;SDS011;7803;48.130;13.788;2022-10-30T14:59:43;6.10;;;5.13;;
15408;SDS011;7803;48.130;13.788;2022-10-30T15:02:46;7.40;;;5.13;;
15408;SDS011;7803;48.130;13.788;2022-10-30T15:05:56;7.03;;;5.22;;
15408;SDS011;7803;48.130;13.788;2022-10-30T15:09:05;7.20;;;5.50;;
15408;SDS011;7803;48.130;13.788;2022-10-30T15:12:19;7.10;;;5.47;;
15408;SDS011;7803;48.130;13.788;2022-10-30T15:15:34;7.07;;;5.20;;
15408;SDS011;7803;48.130;13.788;2022-10-30T15:18:37;6.60;;;5.43;;
15408;SDS011;7803;48.130;13.788;2022-10-30T15:21:40;6.78;;;5.00;;
15408;SDS011;7803;48.130;13.788;2022-10-30T15:24:44;7.28;;;5.20;;
15408;SDS011;7803;48.130;13.788;2022-10-30T15:27:47;6.65;;;5.45;;
15408;SDS011;7803;48.130;13.788;2022-10-30T15:31:00;5.22;;;4.55;;
15408;SDS011;7803;48.130;13.788;2022-10-30T15:34:04;5.68;;;4.82;;
15408;SDS011;7803;48.130;13.788;2022-10-30T15:37:22;6.60;;;5.13;;
15408;SDS011;7803;48.130;13.788;2022-10-30T15:40:24;7.60;;;5.60;;
15408;SDS011;7803;48.130;13.788;2022-10-30T15:43:27;6.10;;;4.90;;
15408;SDS011;7803;48.130;13.788;2022-10-30T15:46:33;7.75;;;5.18;;
15408;SDS011;7803;48.130;13.788;2022-10-30T15:49:35;5.57;;;4.80;;
15408;SDS011;7803;48.130;13.788;2022-10-30T15:52:40;6.30;;;5.13;;
15408;SDS011;7803;48.130;13.788;2022-10-30T15:55:43;6.75;;;5.20;;
15408;SDS011;7803;48.130;13.788;2022-10-30T15:58:47;5.70;;;4.57;;
15408;SDS011;7803;48.130;13.788;2022-10-30T16:01:55;6.15;;;4.85;;
15408;SDS011;7803;48.130;13.788;2022-10-30T16:04:58;6.97;;;4.55;;
15408;SDS011;7803;48.130;13.788;2022-10-30T16:08:01;5.97;;;5.03;;
15408;SDS011;7803;48.130;13.788;2022-10-30T16:11:04;6.43;;;4.70;;
15408;SDS011;7803;48.130;13.788;2022-10-30T16:14:06;6.47;;;4.88;;
15408;SDS011;7803;48.130;13.788;2022-10-30T16:17:14;6.75;;;5.13;;
15408;SDS011;7803;48.130;13.788;2022-10-30T16:20:16;6.10;;;4.90;;
15408;SDS011;7803;48.130;13.788;2022-10-30T16:23:19;5.88;;;4.78;;
15408;SDS011;7803;48.130;13.788;2022-10-30T16:26:26;6.53;;;4.82;;
15408;SDS011;7803;48.130;13.788;2022-10-30T16:29:32;5.53;;;4.82;;
15408;SDS011;7803;48.130;13.788;2022-10-30T16:32:37;9.75;;;5.32;;
15408;SDS011;7803;48.130;13.788;2022-10-30T16:35:41;6.40;;;4.82;;
15408;SDS011;7803;48.130;13.788;2022-10-30T16:38:45;5.18;;;4.35;;
15408;SDS011;7803;48.130;13.788;2022-10-30T16:41:49;6.10;;;4.47;;
15408;SDS011;7803;48.130;13.788;2022-10-30T16:44:52;5.68;;;4.63;;
15408;SDS011;7803;48.130;13.788;2022-10-30T16:48:25;5.43;;;4.80;;
15408;SDS011;7803;48.130;13.788;2022-10-30T16:51:31;5.72;;;4.30;;
15408;SDS011;7803;48.130;13.788;2022-10-30T16:54:34;5.80;;;4.55;;
15408;SDS011;7803;48.130;13.788;2022-10-30T16:57:40;5.70;;;4.35;;
15408;SDS011;7803;48.130;13.788;2022-10-30T17:00:47;5.57;;;4.88;;
15408;SDS011;7803;48.130;13.788;2022-10-30T17:03:53;5.80;;;4.57;;
15408;SDS011;7803;48.130;13.788;2022-10-30T17:07:04;5.35;;;4.80;;
15408;SDS011;7803;48.130;13.788;2022-10-30T17:13:33;5.30;;;4.10;;
15408;SDS011;7803;48.130;13.788;2022-10-30T17:16:36;5.18;;;4.50;;
15408;SDS011;7803;48.130;13.788;2022-10-30T17:19:46;6.28;;;4.40;;
15408;SDS011;7803;48.130;13.788;2022-10-30T17:23:02;4.90;;;4.40;;
15408;SDS011;7803;48.130;13.788;2022-10-30T17:26:07;5.10;;;4.47;;
15408;SDS011;7803;48.130;13.788;2022-10-30T17:32:44;6.10;;;4.70;;
15408;SDS011;7803;48.130;13.788;2022-10-30T17:35:55;5.97;;;4.72;;
15408;SDS011;7803;48.130;13.788;2022-10-30T17:38:57;5.05;;;4.55;;
15408;SDS011;7803;48.130;13.788;2022-10-30T17:42:00;4.35;;;3.95;;
15408;SDS011;7803;48.130;13.788;2022-10-30T17:45:03;5.38;;;4.68;;
15408;SDS011;7803;48.130;13.788;2022-10-30T17:48:10;6.10;;;4.70;;
15408;SDS011;7803;48.130;13.788;2022-10-30T17:51:16;4.97;;;4.53;;
15408;SDS011;7803;48.130;13.788;2022-10-30T17:54:19;4.70;;;4.20;;
15408;SDS011;7803;48.130;13.788;2022-10-30T17:57:25;5.43;;;4.43;;
15408;SDS011;7803;48.130;13.788;2022-10-30T18:00:28;5.30;;;4.60;;
15408;SDS011;7803;48.130;13.788;2022-10-30T18:03:31;4.85;;;4.35;;
15408;SDS011;7803;48.130;13.788;2022-10-30T18:06:34;4.88;;;4.40;;
15408;SDS011;7803;48.130;13.788;2022-10-30T18:09:37;5.22;;;4.72;;
15408;SDS011;7803;48.130;13.788;2022-10-30T18:12:39;6.75;;;4.72;;
15408;SDS011;7803;48.130;13.788;2022-10-30T18:15:45;5.03;;;4.53;;
15408;SDS011;7803;48.130;13.788;2022-10-30T18:18:53;6.10;;;4.72;;
15408;SDS011;7803;48.130;13.788;2022-10-30T18:21:57;6.25;;;4.80;;
15408;SDS011;7803;48.130;13.788;2022-10-30T18:24:59;4.80;;;4.30;;
15408;SDS011;7803;48.130;13.788;2022-10-30T18:28:02;4.88;;;4.38;;
15408;SDS011;7803;48.130;13.788;2022-10-30T18:31:04;6.38;;;4.82;;
15408;SDS011;7803;48.130;13.788;2022-10-30T18:34:09;5.10;;;4.53;;
15408;SDS011;7803;48.130;13.788;2022-10-30T18:37:18;6.45;;;4.85;;
15408;SDS011;7803;48.130;13.788;2022-10-30T18:40:21;4.80;;;4.30;;
15408;SDS011;7803;48.130;13.788;2022-10-30T18:43:24;5.03;;;4.43;;